Archie C. Settoon — WDD4754 — position and weather

sailwx.info

Track history (hours):
 
Tides and Currents Weather Stations Pressure Air Temp Water Temp Dewpoint Dewpoint Depression Visibility Wind Speed Wind Dir Waves Ship Positions

Archie C. Settoon

Owner: Settoon Towing, LLC, Gibson, LA. More information available from US FCC via Universal Licensing System and Coast Guard Vessel Documentation Center.

Last reported at 2017-Sep-14 00:55 UTC. Time now 2017-Sep-22 09:44 UTC.
Position N 29°32' W 090°51'.
Warning: this ship's position is 8 days out of date.

Length 18 m.

Type: Tug. MMSI: 367113590.

Date/timePositionNaut miles runAvg speedWind from/ knotsBaromVisibWave heightAir tempDewpointWater temp
2017-Sep-14 00:55N 29°32' W 090°51'2 5.5
2017-Sep-14 00:30N 29°32' W 090°48'2 5.0
2017-Sep-14 00:00N 29°33' W 090°45'2 4.7
2017-Sep-13 23:30N 29°34' W 090°43'2 4.9
2017-Sep-13 23:00N 29°37' W 090°42'2 4.9
2017-Sep-13 22:30N 29°36' W 090°40'3 5.7
2017-Sep-13 22:00N 29°35' W 090°37'3 5.4
2017-Sep-13 21:29N 29°34' W 090°34'3 5.6
2017-Sep-13 20:59N 29°34' W 090°31'2 0.1
2017-Sep-12 21:19N 29°34' W 090°33'3 6.8
2017-Sep-12 20:55N 29°35' W 090°36'6 6.9
2017-Sep-12 20:06N 29°37' W 090°42'1 6.5
2017-Sep-12 20:00N 29°36' W 090°43'3 5.6
2017-Sep-12 19:30N 29°34' W 090°44'3 6.7
2017-Sep-12 19:00N 29°32' W 090°48'5 7.6
2017-Sep-12 18:24N 29°32' W 090°53'  
2017-Sep-08 21:52N 29°47' W 092°08'3 7.2
2017-Sep-08 21:30N 29°47' W 092°11'4 7.9
2017-Sep-08 21:00N 29°48' W 092°15'52 6.5
2017-Sep-08 13:03N 30°00' W 093°14'0 6.4
2017-Sep-08 13:00N 30°01' W 093°14'2 4.6
2017-Sep-08 12:30N 30°02' W 093°15'3 6.1
2017-Sep-08 12:00N 30°05' W 093°17'2 3.7
2017-Sep-08 11:30N 30°06' W 093°19'2 1.3
2017-Sep-08 09:54N 30°08' W 093°19'0 0.0
2017-Sep-08 08:48N 30°08' W 093°19'0 0.0
2017-Sep-08 08:18N 30°08' W 093°19'0 0.0
2017-Sep-08 07:55N 30°08' W 093°19'0 0.0
2017-Sep-08 07:30N 30°08' W 093°19'0 0.0
2017-Sep-08 06:44N 30°08' W 093°19'0 0.1
2017-Sep-08 06:16N 30°08' W 093°19'0 0.0
2017-Sep-08 04:57N 30°08' W 093°19'0 0.0
2017-Sep-08 03:53N 30°08' W 093°19'0 0.0
2017-Sep-08 03:06N 30°08' W 093°19'0 0.0
2017-Sep-08 02:38N 30°08' W 093°19'0 0.0
2017-Sep-08 02:17N 30°08' W 093°19'0 0.1
2017-Sep-08 02:00N 30°08' W 093°19'2 3.3
2017-Sep-08 01:30N 30°06' W 093°20'2 4.6
2017-Sep-08 01:00N 30°05' W 093°18'1 1.6
2017-Sep-08 00:30N 30°05' W 093°17'2 4.0
2017-Sep-08 00:00N 30°03' W 093°16'3 6.0
2017-Sep-07 23:30N 30°01' W 093°14'1 1.5
2017-Sep-07 23:00N 29°60' W 093°13'0 0.3
2017-Sep-07 22:30N 29°60' W 093°13'3 5.9
2017-Sep-07 22:00N 29°58' W 093°11'3 6.0
2017-Sep-07 21:30N 29°56' W 093°08'44 3.0
2017-Sep-07 06:55N 29°50' W 092°18'3 4.8
2017-Sep-07 06:18N 29°48' W 092°15'1 5.0
2017-Sep-07 06:00N 29°48' W 092°14'2 3.6
2017-Sep-07 05:30N 29°47' W 092°12'1 1.1
2017-Sep-07 05:00N 29°47' W 092°11'0 0.8
2017-Sep-07 04:30N 29°47' W 092°11'0 0.3
2017-Sep-07 04:00N 29°47' W 092°11'2 4.4
2017-Sep-07 03:30N 29°47' W 092°08'3 5.7
2017-Sep-07 02:59N 29°48' W 092°05'3 5.5
2017-Sep-07 02:30N 29°49' W 092°02'  
Track history (hours):
 
Tides and Currents Weather Stations Pressure Air Temp Water Temp Dewpoint Dewpoint Depression Visibility Wind Speed Wind Dir Waves Ship Positions

Archie C. Settoon

Owner: Settoon Towing, LLC, Gibson, LA. More information available from US FCC via Universal Licensing System and Coast Guard Vessel Documentation Center.

Last reported at 2017-Sep-14 00:55 UTC. Time now 2017-Sep-22 09:44 UTC.
Position N 29°32' W 090°51'.
Warning: this ship's position is 8 days out of date.

Length 18 m.

Type: Tug. MMSI: 367113590.

Date/timePositionNaut miles runAvg speedWind from/ knotsBaromVisibWave heightAir tempDewpointWater temp
2017-Sep-14 00:55N 29°32' W 090°51'2 5.5
2017-Sep-14 00:30N 29°32' W 090°48'2 5.0
2017-Sep-14 00:00N 29°33' W 090°45'2 4.7
2017-Sep-13 23:30N 29°34' W 090°43'2 4.9
2017-Sep-13 23:00N 29°37' W 090°42'2 4.9
2017-Sep-13 22:30N 29°36' W 090°40'3 5.7
2017-Sep-13 22:00N 29°35' W 090°37'3 5.4
2017-Sep-13 21:29N 29°34' W 090°34'3 5.6
2017-Sep-13 20:59N 29°34' W 090°31'2 0.1
2017-Sep-12 21:19N 29°34' W 090°33'3 6.8
2017-Sep-12 20:55N 29°35' W 090°36'6 6.9
2017-Sep-12 20:06N 29°37' W 090°42'1 6.5
2017-Sep-12 20:00N 29°36' W 090°43'3 5.6
2017-Sep-12 19:30N 29°34' W 090°44'3 6.7
2017-Sep-12 19:00N 29°32' W 090°48'5 7.6
2017-Sep-12 18:24N 29°32' W 090°53'  
2017-Sep-08 21:52N 29°47' W 092°08'3 7.2
2017-Sep-08 21:30N 29°47' W 092°11'4 7.9
2017-Sep-08 21:00N 29°48' W 092°15'52 6.5
2017-Sep-08 13:03N 30°00' W 093°14'0 6.4
2017-Sep-08 13:00N 30°01' W 093°14'2 4.6
2017-Sep-08 12:30N 30°02' W 093°15'3 6.1
2017-Sep-08 12:00N 30°05' W 093°17'2 3.7
2017-Sep-08 11:30N 30°06' W 093°19'2 1.3
2017-Sep-08 09:54N 30°08' W 093°19'0 0.0
2017-Sep-08 08:48N 30°08' W 093°19'0 0.0
2017-Sep-08 08:18N 30°08' W 093°19'0 0.0
2017-Sep-08 07:55N 30°08' W 093°19'0 0.0
2017-Sep-08 07:30N 30°08' W 093°19'0 0.0
2017-Sep-08 06:44N 30°08' W 093°19'0 0.1
2017-Sep-08 06:16N 30°08' W 093°19'0 0.0
2017-Sep-08 04:57N 30°08' W 093°19'0 0.0
2017-Sep-08 03:53N 30°08' W 093°19'0 0.0
2017-Sep-08 03:06N 30°08' W 093°19'0 0.0
2017-Sep-08 02:38N 30°08' W 093°19'0 0.0
2017-Sep-08 02:17N 30°08' W 093°19'0 0.1
2017-Sep-08 02:00N 30°08' W 093°19'2 3.3
2017-Sep-08 01:30N 30°06' W 093°20'2 4.6
2017-Sep-08 01:00N 30°05' W 093°18'1 1.6
2017-Sep-08 00:30N 30°05' W 093°17'2 4.0
2017-Sep-08 00:00N 30°03' W 093°16'3 6.0
2017-Sep-07 23:30N 30°01' W 093°14'1 1.5
2017-Sep-07 23:00N 29°60' W 093°13'0 0.3
2017-Sep-07 22:30N 29°60' W 093°13'3 5.9
2017-Sep-07 22:00N 29°58' W 093°11'3 6.0
2017-Sep-07 21:30N 29°56' W 093°08'44 3.0
2017-Sep-07 06:55N 29°50' W 092°18'3 4.8
2017-Sep-07 06:18N 29°48' W 092°15'1 5.0
2017-Sep-07 06:00N 29°48' W 092°14'2 3.6
2017-Sep-07 05:30N 29°47' W 092°12'1 1.1
2017-Sep-07 05:00N 29°47' W 092°11'0 0.8
2017-Sep-07 04:30N 29°47' W 092°11'0 0.3
2017-Sep-07 04:00N 29°47' W 092°11'2 4.4
2017-Sep-07 03:30N 29°47' W 092°08'3 5.7
2017-Sep-07 02:59N 29°48' W 092°05'3 5.5
2017-Sep-07 02:30N 29°49' W 092°02'  

Dump ship's entire track history